Thursday, September 20, 2018, 6:17 PM EDT
Back to Local

KOXB, Ocean City Municipal Airport

Location: Berlin, MD, United States Lat: 38.317
Local Time: 6:17 PM EDT (22:17 GMT) Lon: -75.117
Time Zone: US/Eastern Elev: 13 ft

Show me the last for .
Show Coded

Time T Td Feel RH Dir Speed Gust Alt SLP Vis Weather Sky Remarks
2018-09-20 17:53 72 63 76 73 100° 12 - 30.21 30.21 10 CLR None
2018-09-20 16:53 73 62 77 68 100° 10 - 30.21 30.21 10 SCT055 None
2018-09-20 15:53 75 63 78 66 90° 9 - 30.21 30.21 10 BKN060 None
2018-09-20 14:53 74 63 77 68 80° 10 - 30.21 30.21 10 OVC060 None
2018-09-20 13:53 73 63 77 70 90° 10 - 30.21 30.21 10 OVC055 None
2018-09-20 13:14 75 64 78 68 90° 10 - 30.21 - 10 FEW026 BKN050 None
2018-09-20 12:53 75 64 78 68 80° 10 - 30.22 30.21 10 BKN028 None
2018-09-20 12:51 75 64 78 69 90° 8 - 30.22 - 10 BKN028 BKN040 None
2018-09-20 12:27 73 64 77 73 80° 9 - 30.23 - 10 SCT027 BKN038 None
2018-09-20 11:53 74 63 77 68 90° 10 - 30.23 30.22 10 BKN024 None
2018-09-20 10:53 75 64 78 68 90° 9 - 30.22 30.21 10 BKN023 OVC037 None
2018-09-20 10:29 73 64 77 73 70° 8 - 30.21 - 10 SCT025 SCT036 None
2018-09-20 09:53 75 65 78 70 90° 10 - 30.20 30.20 10 BKN021 None
2018-09-20 08:53 - - - 0 90° 10 - 30.17 30.17 0 FEW020 OVC029 None
2018-09-20 07:53 71 64 76 78 80° 9 - 30.15 30.15 10 BKN021 OVC026 6-hr Min Temp (8am): 71.1°F
6-hr Max Temp (8am): 72.0°F
2018-09-20 06:53 71 65 76 81 90° 12 - 30.12 30.12 10 OVC018 None
2018-09-20 05:53 71 66 76 84 90° 9 - 30.10 30.09 10 BKN017 OVC022 None
2018-09-20 05:12 71 66 76 84 90° 9 - 30.08 - 10 BKN016 BKN021 OVC027 None
2018-09-20 04:53 71 66 76 84 90° 9 - 30.07 30.07 10 BKN014 BKN026 OVC047 None
2018-09-20 04:43 71 66 76 84 80° 9 - 30.07 - 10 BKN014 BKN019 OVC040 None
2018-09-20 03:53 72 68 76 87 100° 10 - 30.05 30.05 10 BKN017 OVC026 None
2018-09-20 02:53 72 67 76 84 80° 6 - 30.06 30.06 10 BKN016 OVC021 None
2018-09-20 01:53 72 68 76 87 90° 8 - 30.05 30.05 10 OVC016 6-hr Min Temp (2am): 72.0°F
6-hr Max Temp (2am): 73.0°F
2018-09-20 01:32 72 67 76 84 80° 7 - 30.05 - 10 BKN015 None
2018-09-20 01:02 72 68 76 87 70° 8 - 30.05 - 10 SCT015 None
2018-09-20 00:53 72 68 76 87 70° 6 - 30.04 30.04 10 BKN014 24-hr Min Temp (1am): 68.0°F
24-hr Max Temp (1am): 82.9°F
2018-09-20 00:05 72 68 76 87 80° 6 - 30.04 - 10 FEW015 None
2018-09-19 23:53 72 68 76 87 80° 6 - 30.04 30.04 10 BKN015 None
2018-09-19 23:49 72 68 76 88 60° 5 - 30.04 - 10 SCT015 None
2018-09-19 22:53 72 68 76 87 70° 6 - 30.03 30.03 10 BKN015 None
2018-09-19 22:35 73 69 77 87 90° 8 - 30.03 - 10 BKN015 None
2018-09-19 21:53 72 69 76 90 80° 6 - 30.01 30.01 10 FEW013 SCT048 None
2018-09-19 20:53 73 68 77 84 80° 8 - 29.99 29.99 10 CLR None
2018-09-19 19:53 73 68 77 84 70° 6 - 29.97 29.96 10 CLR None
2018-09-19 18:53 74 69 78 84 50° 5 - 29.95 29.95 10 CLR None

Support USWX by starting your Amazon purchase here.